Time;durP1;ratioP1;P1;durP2;ratioP2;P2;SDS_P1;SDS_P2;PMS_P1;PMS_P2;Temp;Humidity;BMP_temperature;BMP_pressure;BME280_temperature;BME280_humidity;BME280_pressure;Samples;Min_cycle;Max_cycle;Signal;HPM_P1;HPM_P2
2022/03/20 00:01:25;;;;;;;0.30;0.10;;;;;;;;;;4213986;28;20542;-40
2022/03/20 00:03:26;;;;;;;0.20;0.20;;;;;;;;;;4213176;28;20055;-39
2022/03/20 00:05:28;;;;;;;0.00;0.00;;;;;;;;;;4212499;28;20048;-41
2022/03/20 00:07:31;;;;;;;0.38;0.10;;;;;;;;;;4213509;28;20548;-40
2022/03/20 00:09:32;;;;;;;0.35;0.10;;;;;;;;;;4213704;28;20070;-40
2022/03/20 00:11:33;;;;;;;0.00;0.00;;;;;;;;;;4213564;28;20080;-40
2022/03/20 00:13:34;;;;;;;0.13;0.10;;;;;;;;;;4213422;28;20107;-39
2022/03/20 00:15:35;;;;;;;0.35;0.20;;;;;;;;;;4213582;28;20519;-41
2022/03/20 00:17:36;;;;;;;0.20;0.20;;;;;;;;;;4213129;28;20232;-39
2022/03/20 00:19:37;;;;;;;0.10;0.10;;;;;;;;;;4213462;28;20091;-40
2022/03/20 00:21:38;;;;;;;0.10;0.10;;;;;;;;;;4213462;28;20044;-40
2022/03/20 00:23:39;;;;;;;0.28;0.10;;;;;;;;;;4213231;28;20101;-41
2022/03/20 00:25:47;;;;;;;0.32;0.13;;;;;;;;;;4213414;28;20101;-40
2022/03/20 00:27:48;;;;;;;0.50;0.28;;;;;;;;;;4213324;28;20051;-40
2022/03/20 00:29:50;;;;;;;0.15;0.10;;;;;;;;;;4212117;28;20097;-40
2022/03/20 00:31:51;;;;;;;0.20;0.10;;;;;;;;;;4212694;28;20048;-40
2022/03/20 00:33:52;;;;;;;0.20;0.10;;;;;;;;;;4213558;28;20101;-39
2022/03/20 00:35:53;;;;;;;0.00;0.00;;;;;;;;;;4213395;28;20077;-39
2022/03/20 00:37:55;;;;;;;0.20;0.10;;;;;;;;;;4211727;28;20523;-41
2022/03/20 00:39:56;;;;;;;0.10;0.10;;;;;;;;;;4210558;28;20047;-39
2022/03/20 00:41:57;;;;;;;0.43;0.20;;;;;;;;;;4200127;28;20163;-39
2022/03/20 00:43:59;;;;;;;0.63;0.15;;;;;;;;;;4211319;28;20100;-38
2022/03/20 00:46:00;;;;;;;0.30;0.20;;;;;;;;;;4211132;28;20063;-39
2022/03/20 00:48:01;;;;;;;0.75;0.40;;;;;;;;;;4210544;28;20098;-39
2022/03/20 00:50:02;;;;;;;0.95;0.30;;;;;;;;;;4209909;28;20044;-39
2022/03/20 00:52:04;;;;;;;0.20;0.10;;;;;;;;;;4210544;28;20101;-39
2022/03/20 00:54:05;;;;;;;0.22;0.10;;;;;;;;;;4210701;28;20055;-39
2022/03/20 00:56:07;;;;;;;0.38;0.13;;;;;;;;;;4211010;28;20052;-39
2022/03/20 00:58:10;;;;;;;0.47;0.28;;;;;;;;;;4209520;28;20044;-40
2022/03/20 01:00:11;;;;;;;0.10;0.10;;;;;;;;;;4196534;28;20051;-40
2022/03/20 01:02:12;;;;;;;0.32;0.20;;;;;;;;;;4196040;28;20070;-39
2022/03/20 01:04:13;;;;;;;0.13;0.10;;;;;;;;;;4196444;28;20052;-39
2022/03/20 01:06:14;;;;;;;0.10;0.10;;;;;;;;;;4196208;28;20091;-40
2022/03/20 01:08:15;;;;;;;0.90;0.20;;;;;;;;;;4196327;28;20098;-40
2022/03/20 01:10:16;;;;;;;0.05;0.05;;;;;;;;;;4196211;28;20552;-40
2022/03/20 01:12:17;;;;;;;0.10;0.10;;;;;;;;;;4196052;28;20437;-40
2022/03/20 01:14:18;;;;;;;0.30;0.20;;;;;;;;;;4204097;28;20062;-40
2022/03/20 01:16:19;;;;;;;0.25;0.20;;;;;;;;;;4210802;28;20048;-42
2022/03/20 01:18:20;;;;;;;0.10;0.10;;;;;;;;;;4210444;28;20077;-39
2022/03/20 01:20:21;;;;;;;0.43;0.10;;;;;;;;;;4210742;28;20091;-40
2022/03/20 01:22:22;;;;;;;0.13;0.10;;;;;;;;;;4210587;28;20129;-40
2022/03/20 01:24:24;;;;;;;0.35;0.10;;;;;;;;;;4210784;28;20044;-41
2022/03/20 01:26:25;;;;;;;0.40;0.10;;;;;;;;;;4210624;28;20056;-39
2022/03/20 01:28:26;;;;;;;0.43;0.10;;;;;;;;;;4206953;28;20073;-40
2022/03/20 01:30:27;;;;;;;0.47;0.20;;;;;;;;;;4198193;28;20044;-40
2022/03/20 01:32:28;;;;;;;1.40;0.17;;;;;;;;;;4204505;28;20051;-40
2022/03/20 01:34:29;;;;;;;0.50;0.22;;;;;;;;;;4194726;28;20102;-40
2022/03/20 01:36:30;;;;;;;0.10;0.10;;;;;;;;;;4195185;28;20095;-40
2022/03/20 01:38:31;;;;;;;0.60;0.13;;;;;;;;;;4212536;28;20307;-40
2022/03/20 01:40:32;;;;;;;0.60;0.22;;;;;;;;;;4204741;28;20059;-40
2022/03/20 01:42:34;;;;;;;0.17;0.10;;;;;;;;;;4200480;28;20045;-39
2022/03/20 01:44:35;;;;;;;0.47;0.20;;;;;;;;;;4195901;28;20056;-39
2022/03/20 01:46:36;;;;;;;0.43;0.20;;;;;;;;;;4196165;28;20082;-40
2022/03/20 01:48:37;;;;;;;0.30;0.20;;;;;;;;;;4195566;28;20117;-39
2022/03/20 01:50:39;;;;;;;0.20;0.10;;;;;;;;;;4195752;28;20055;-39
2022/03/20 01:52:40;;;;;;;0.10;0.10;;;;;;;;;;4196048;28;20049;-41
2022/03/20 01:54:42;;;;;;;0.20;0.10;;;;;;;;;;4195973;28;20056;-39
2022/03/20 01:56:46;;;;;;;0.10;0.10;;;;;;;;;;4197931;28;20095;-40
2022/03/20 01:58:47;;;;;;;0.10;0.10;;;;;;;;;;4204621;28;20439;-40
2022/03/20 02:00:47;;;;;;;0.43;0.20;;;;;;;;;;4195756;28;20060;-40
2022/03/20 02:02:48;;;;;;;0.90;0.30;;;;;;;;;;4203182;28;20131;-39
2022/03/20 02:04:50;;;;;;;0.52;0.13;;;;;;;;;;4210721;28;20094;-41
2022/03/20 02:06:51;;;;;;;0.30;0.20;;;;;;;;;;4199657;28;20503;-39
2022/03/20 02:08:56;;;;;;;0.28;0.17;;;;;;;;;;4198795;28;20041;-40
2022/03/20 02:10:57;;;;;;;0.38;0.20;;;;;;;;;;4206965;28;20149;-41
2022/03/20 02:12:58;;;;;;;0.25;0.20;;;;;;;;;;4215423;28;20396;-40
2022/03/20 02:15:03;;;;;;;0.30;0.20;;;;;;;;;;4215535;28;20095;-40
2022/03/20 02:17:04;;;;;;;0.10;0.10;;;;;;;;;;4215159;28;20048;-40
2022/03/20 02:19:09;;;;;;;0.10;0.10;;;;;;;;;;4215356;28;20071;-40
2022/03/20 02:21:10;;;;;;;0.55;0.15;;;;;;;;;;4215349;28;20079;-39
2022/03/20 02:23:12;;;;;;;0.75;0.20;;;;;;;;;;4213900;28;20047;-42
2022/03/20 02:25:14;;;;;;;0.20;0.15;;;;;;;;;;4215313;28;20113;-40
2022/03/20 02:27:17;;;;;;;0.25;0.10;;;;;;;;;;4215122;28;20488;-39
2022/03/20 02:29:18;;;;;;;0.30;0.10;;;;;;;;;;4215196;28;20496;-40
2022/03/20 02:31:19;;;;;;;0.55;0.20;;;;;;;;;;4215421;28;20105;-40
2022/03/20 02:33:23;;;;;;;0.10;0.10;;;;;;;;;;4214606;28;20589;-39
2022/03/20 02:35:26;;;;;;;0.30;0.10;;;;;;;;;;4213940;28;20101;-41
2022/03/20 02:37:28;;;;;;;0.85;0.32;;;;;;;;;;4215047;28;20069;-40
2022/03/20 02:39:29;;;;;;;0.40;0.20;;;;;;;;;;4213510;28;20044;-40
2022/03/20 02:41:31;;;;;;;0.10;0.10;;;;;;;;;;4209435;28;20070;-40
2022/03/20 02:43:32;;;;;;;0.50;0.20;;;;;;;;;;4198140;28;20052;-41
2022/03/20 02:45:34;;;;;;;0.30;0.10;;;;;;;;;;4196989;28;20114;-40
2022/03/20 02:47:39;;;;;;;0.20;0.20;;;;;;;;;;4197723;28;20101;-40
2022/03/20 02:49:41;;;;;;;1.20;0.20;;;;;;;;;;4199172;28;20118;-40
2022/03/20 02:51:41;;;;;;;0.25;0.20;;;;;;;;;;4206807;28;20054;-42
2022/03/20 02:53:42;;;;;;;0.38;0.20;;;;;;;;;;4213284;28;20052;-40
2022/03/20 02:55:47;;;;;;;0.63;0.28;;;;;;;;;;4214789;28;20120;-40
2022/03/20 02:57:48;;;;;;;0.20;0.10;;;;;;;;;;4214678;28;20064;-40
2022/03/20 02:59:49;;;;;;;0.60;0.28;;;;;;;;;;4214872;28;20414;-40
2022/03/20 03:01:50;;;;;;;0.38;0.17;;;;;;;;;;4214061;28;20050;-39
2022/03/20 03:03:53;;;;;;;0.20;0.10;;;;;;;;;;4214731;28;20095;-39
2022/03/20 03:05:56;;;;;;;0.17;0.13;;;;;;;;;;4213371;28;20048;-40
2022/03/20 03:12:37;;;;;;;0.20;0.10;;;;;;;;;;4214512;28;20337;-40
2022/03/20 03:16:57;;;;;;;0.32;0.20;;;;;;;;;;4213895;28;20063;-40
2022/03/20 03:18:58;;;;;;;0.20;0.10;;;;;;;;;;4214437;28;20063;-40
2022/03/20 03:20:59;;;;;;;0.52;0.22;;;;;;;;;;4214390;28;20109;-40
2022/03/20 03:23:01;;;;;;;0.20;0.20;;;;;;;;;;4214488;28;20109;-40
2022/03/20 03:25:01;;;;;;;0.52;0.20;;;;;;;;;;4214580;28;20047;-40
2022/03/20 03:27:04;;;;;;;0.28;0.10;;;;;;;;;;4213049;28;20043;-40
2022/03/20 03:29:05;;;;;;;0.20;0.20;;;;;;;;;;4214320;28;20693;-40
2022/03/20 03:31:08;;;;;;;0.82;0.20;;;;;;;;;;4214462;28;20052;-40
2022/03/20 03:33:10;;;;;;;0.22;0.20;;;;;;;;;;4213740;28;20051;-40
2022/03/20 03:37:32;;;;;;;0.45;0.30;;;;;;;;;;4214110;28;20058;-40
2022/03/20 03:39:33;;;;;;;0.30;0.20;;;;;;;;;;4210584;28;20071;-40
2022/03/20 03:41:36;;;;;;;0.38;0.10;;;;;;;;;;4206249;28;20059;-40
2022/03/20 03:43:37;;;;;;;0.20;0.10;;;;;;;;;;4197392;28;20049;-42
2022/03/20 03:45:39;;;;;;;0.30;0.20;;;;;;;;;;4197222;28;20110;-42
2022/03/20 03:47:40;;;;;;;0.10;0.10;;;;;;;;;;4196805;28;20055;-40
2022/03/20 03:49:41;;;;;;;0.20;0.10;;;;;;;;;;4197261;28;20114;-39
2022/03/20 03:51:42;;;;;;;0.30;0.10;;;;;;;;;;4197133;28;20048;-40
2022/03/20 03:53:43;;;;;;;0.38;0.20;;;;;;;;;;4196986;28;20048;-39
2022/03/20 03:55:44;;;;;;;0.10;0.10;;;;;;;;;;4196067;28;20051;-40
2022/03/20 03:57:46;;;;;;;0.30;0.20;;;;;;;;;;4201004;28;20039;-39
2022/03/20 03:59:47;;;;;;;0.10;0.10;;;;;;;;;;4210436;28;20044;-39
2022/03/20 04:01:49;;;;;;;1.08;0.10;;;;;;;;;;4204094;28;20051;-43
2022/03/20 04:03:49;;;;;;;0.65;0.10;;;;;;;;;;4197464;28;20048;-39
2022/03/20 04:05:50;;;;;;;0.00;0.00;;;;;;;;;;4195938;28;20097;-39
2022/03/20 04:07:51;;;;;;;0.43;0.20;;;;;;;;;;4195729;28;20525;-39
2022/03/20 04:09:52;;;;;;;0.22;0.17;;;;;;;;;;4196701;28;20106;-39
2022/03/20 04:11:53;;;;;;;0.10;0.10;;;;;;;;;;4197004;28;20078;-39
2022/03/20 04:13:54;;;;;;;0.73;0.20;;;;;;;;;;4196882;28;20098;-39
2022/03/20 04:15:55;;;;;;;1.73;0.30;;;;;;;;;;4179022;28;20053;-40
2022/03/20 04:17:58;;;;;;;0.98;0.28;;;;;;;;;;4212017;28;20047;-39
2022/03/20 04:19:58;;;;;;;0.38;0.17;;;;;;;;;;4195514;28;20070;-39
2022/03/20 04:21:59;;;;;;;0.88;0.20;;;;;;;;;;4196531;28;20048;-40
2022/03/20 04:24:00;;;;;;;0.10;0.10;;;;;;;;;;4196990;28;20056;-39
2022/03/20 04:26:01;;;;;;;0.38;0.20;;;;;;;;;;4196770;28;20518;-40
2022/03/20 04:28:03;;;;;;;0.40;0.15;;;;;;;;;;4195888;28;20049;-40
2022/03/20 04:30:04;;;;;;;0.30;0.20;;;;;;;;;;4196505;28;20059;-39
2022/03/20 04:32:05;;;;;;;0.50;0.20;;;;;;;;;;4196043;28;20064;-39
2022/03/20 04:34:06;;;;;;;0.10;0.10;;;;;;;;;;4196701;28;20053;-40
2022/03/20 04:36:09;;;;;;;0.20;0.20;;;;;;;;;;4196732;28;20052;-40
2022/03/20 04:38:10;;;;;;;0.28;0.28;;;;;;;;;;4210959;28;20047;-39
2022/03/20 04:40:11;;;;;;;0.20;0.20;;;;;;;;;;4213353;28;20055;-39
2022/03/20 04:42:13;;;;;;;0.20;0.10;;;;;;;;;;4213936;28;20047;-49
2022/03/20 04:44:14;;;;;;;0.20;0.10;;;;;;;;;;4213978;28;20566;-39
2022/03/20 04:46:15;;;;;;;0.13;0.10;;;;;;;;;;4214221;28;20070;-40
2022/03/20 04:59:54;;;;;;;0.30;0.15;;;;;;;;;;4197568;28;20109;-39
2022/03/20 05:01:55;;;;;;;0.10;0.10;;;;;;;;;;4195902;28;20056;-40
2022/03/20 05:03:56;;;;;;;0.20;0.20;;;;;;;;;;4196594;28;20140;-40
2022/03/20 05:05:57;;;;;;;0.40;0.20;;;;;;;;;;4196204;28;20094;-39
2022/03/20 05:07:58;;;;;;;0.30;0.13;;;;;;;;;;4196110;28;20045;-44
2022/03/20 05:14:39;;;;;;;0.85;0.17;;;;;;;;;;4212930;28;20479;-40
2022/03/20 05:16:40;;;;;;;0.10;0.10;;;;;;;;;;4213095;28;20201;-39
2022/03/20 05:18:41;;;;;;;0.22;0.20;;;;;;;;;;4212302;28;20142;-40
2022/03/20 05:20:44;;;;;;;0.32;0.20;;;;;;;;;;4213060;28;20130;-40
2022/03/20 05:22:45;;;;;;;0.40;0.17;;;;;;;;;;4211410;28;20078;-42
2022/03/20 05:24:46;;;;;;;0.30;0.30;;;;;;;;;;4212674;28;20468;-41
2022/03/20 05:26:47;;;;;;;0.30;0.10;;;;;;;;;;4212588;28;20043;-39
2022/03/20 05:28:48;;;;;;;0.25;0.10;;;;;;;;;;4212735;28;20445;-39
2022/03/20 05:30:48;;;;;;;0.38;0.20;;;;;;;;;;4205917;28;20132;-40
2022/03/20 05:32:50;;;;;;;0.30;0.20;;;;;;;;;;4201925;28;20056;-40
2022/03/20 05:34:51;;;;;;;0.38;0.30;;;;;;;;;;4196245;28;20198;-39
2022/03/20 05:36:52;;;;;;;0.70;0.20;;;;;;;;;;4195879;28;20056;-40
2022/03/20 05:38:52;;;;;;;0.10;0.10;;;;;;;;;;4197070;28;20494;-39
2022/03/20 05:41:43;;;;;;;0.75;0.20;;;;;;;;;;4199342;28;20109;-40
2022/03/20 05:43:14;;;;;;;1.08;0.20;;;;;;;;;;4198975;28;20092;-40
2022/03/20 05:45:15;;;;;;;0.35;0.13;;;;;;;;;;4199291;28;20190;-40
2022/03/20 05:47:16;;;;;;;0.50;0.25;;;;;;;;;;4198693;28;20052;-39
2022/03/20 05:49:26;;;;;;;0.25;0.10;;;;;;;;;;4199138;28;20070;-39
2022/03/20 05:51:27;;;;;;;1.55;0.20;;;;;;;;;;4199384;28;20067;-40
2022/03/20 05:53:29;;;;;;;0.50;0.25;;;;;;;;;;4212521;28;20504;-42
2022/03/20 05:58:02;;;;;;;0.20;0.20;;;;;;;;;;4215935;28;20052;-40
2022/03/20 06:00:03;;;;;;;0.30;0.13;;;;;;;;;;4215792;28;20052;-39
2022/03/20 06:02:13;;;;;;;0.20;0.10;;;;;;;;;;4215475;28;20044;-39
2022/03/20 06:04:15;;;;;;;0.28;0.10;;;;;;;;;;4215670;28;20062;-40
2022/03/20 06:06:16;;;;;;;0.32;0.10;;;;;;;;;;4215906;28;20101;-40
2022/03/20 06:08:19;;;;;;;0.10;0.10;;;;;;;;;;4215375;28;20051;-40
2022/03/20 06:10:20;;;;;;;0.80;0.20;;;;;;;;;;4215342;28;20040;-39
2022/03/20 06:12:21;;;;;;;0.10;0.10;;;;;;;;;;4215462;28;20110;-40
2022/03/20 06:14:22;;;;;;;0.95;0.22;;;;;;;;;;4214323;28;20534;-40
2022/03/20 06:16:23;;;;;;;0.38;0.20;;;;;;;;;;4215433;28;20102;-40
2022/03/20 06:18:26;;;;;;;0.45;0.20;;;;;;;;;;4215012;28;20109;-40
2022/03/20 06:20:27;;;;;;;0.28;0.28;;;;;;;;;;4215407;28;20051;-39
2022/03/20 06:22:28;;;;;;;0.38;0.20;;;;;;;;;;4215177;28;20445;-40
2022/03/20 06:24:28;;;;;;;0.93;0.10;;;;;;;;;;4215548;28;20052;-39
2022/03/20 06:26:29;;;;;;;0.20;0.15;;;;;;;;;;4215560;28;20093;-40
2022/03/20 06:28:30;;;;;;;0.13;0.10;;;;;;;;;;4215502;28;20545;-40
2022/03/20 06:30:32;;;;;;;0.50;0.20;;;;;;;;;;4215314;28;20483;-41
2022/03/20 06:32:37;;;;;;;0.10;0.10;;;;;;;;;;4214733;28;20056;-39
2022/03/20 06:34:38;;;;;;;0.38;0.20;;;;;;;;;;4215525;28;20380;-40
2022/03/20 06:36:39;;;;;;;0.65;0.20;;;;;;;;;;4215484;28;20055;-40
2022/03/20 06:38:40;;;;;;;0.20;0.20;;;;;;;;;;4215037;28;20052;-40
2022/03/20 06:40:41;;;;;;;0.28;0.20;;;;;;;;;;4215058;28;20135;-40
2022/03/20 06:42:42;;;;;;;0.40;0.20;;;;;;;;;;4213916;28;20048;-40
2022/03/20 06:44:43;;;;;;;0.82;0.17;;;;;;;;;;4215338;28;20074;-40
2022/03/20 06:46:44;;;;;;;0.10;0.10;;;;;;;;;;4213487;28;20086;-43
2022/03/20 06:48:45;;;;;;;0.43;0.20;;;;;;;;;;4215030;28;20102;-42
2022/03/20 06:50:46;;;;;;;1.75;0.40;;;;;;;;;;4214260;28;20094;-41
2022/03/20 06:52:47;;;;;;;0.10;0.10;;;;;;;;;;4214824;28;20105;-39
2022/03/20 06:54:49;;;;;;;0.30;0.20;;;;;;;;;;4215007;28;20094;-40
2022/03/20 06:56:49;;;;;;;0.20;0.10;;;;;;;;;;4215069;28;20048;-40
2022/03/20 06:58:50;;;;;;;0.30;0.20;;;;;;;;;;4213820;28;20094;-40
2022/03/20 07:00:51;;;;;;;0.30;0.20;;;;;;;;;;4214874;28;20110;-40
2022/03/20 07:02:55;;;;;;;0.10;0.10;;;;;;;;;;4214132;28;20445;-40
2022/03/20 07:04:56;;;;;;;0.20;0.10;;;;;;;;;;4214973;28;20044;-40
2022/03/20 07:06:58;;;;;;;0.20;0.10;;;;;;;;;;4214580;28;20181;-39
2022/03/20 07:09:00;;;;;;;0.10;0.10;;;;;;;;;;4214759;28;20052;-41
2022/03/20 07:11:01;;;;;;;0.10;0.10;;;;;;;;;;4214578;28;20062;-40
2022/03/20 07:15:21;;;;;;;0.20;0.10;;;;;;;;;;4214646;28;20452;-40
2022/03/20 07:17:24;;;;;;;0.40;0.20;;;;;;;;;;4214004;28;20101;-40
2022/03/20 07:19:26;;;;;;;0.65;0.20;;;;;;;;;;4213495;28;20044;-40
2022/03/20 07:21:28;;;;;;;0.45;0.28;;;;;;;;;;4214480;28;20048;-41
2022/03/20 07:23:29;;;;;;;0.30;0.30;;;;;;;;;;4214312;28;20043;-40
2022/03/20 07:30:09;;;;;;;0.30;0.10;;;;;;;;;;4214621;28;20051;-40
2022/03/20 07:32:10;;;;;;;0.25;0.10;;;;;;;;;;4214023;28;20063;-41
2022/03/20 07:34:11;;;;;;;0.30;0.20;;;;;;;;;;4214426;28;20142;-40
2022/03/20 07:36:13;;;;;;;0.38;0.10;;;;;;;;;;4214233;28;20052;-41
2022/03/20 07:38:14;;;;;;;0.28;0.20;;;;;;;;;;4214302;28;20055;-40
2022/03/20 07:40:15;;;;;;;0.40;0.10;;;;;;;;;;4214164;28;20052;-40
2022/03/20 07:42:18;;;;;;;0.30;0.10;;;;;;;;;;4214016;28;20093;-40
2022/03/20 07:44:26;;;;;;;0.20;0.20;;;;;;;;;;4213134;28;20048;-39
2022/03/20 07:46:27;;;;;;;0.80;0.40;;;;;;;;;;4214049;28;20048;-40
2022/03/20 07:48:29;;;;;;;0.50;0.20;;;;;;;;;;4213540;28;20059;-40
2022/03/20 07:50:29;;;;;;;0.10;0.10;;;;;;;;;;4214114;28;20048;-40
2022/03/20 07:52:30;;;;;;;0.20;0.10;;;;;;;;;;4213679;28;20048;-40
2022/03/20 07:54:32;;;;;;;0.17;0.10;;;;;;;;;;4213968;28;20090;-39
2022/03/20 07:56:35;;;;;;;0.60;0.10;;;;;;;;;;4213932;28;20125;-40
2022/03/20 07:58:36;;;;;;;0.15;0.10;;;;;;;;;;4212501;28;20089;-41
2022/03/20 08:00:40;;;;;;;0.55;0.20;;;;;;;;;;4213844;28;20052;-40
2022/03/20 08:02:41;;;;;;;0.22;0.10;;;;;;;;;;4212197;28;20180;-40
2022/03/20 08:04:42;;;;;;;1.55;0.10;;;;;;;;;;4213871;28;20056;-40
2022/03/20 08:06:43;;;;;;;0.20;0.15;;;;;;;;;;4213507;28;20090;-40
2022/03/20 08:08:45;;;;;;;0.20;0.15;;;;;;;;;;4213772;28;20051;-40
2022/03/20 08:10:46;;;;;;;0.50;0.20;;;;;;;;;;4213396;28;20052;-40
2022/03/20 08:12:48;;;;;;;0.25;0.20;;;;;;;;;;4213609;28;20052;-40
2022/03/20 08:14:49;;;;;;;0.17;0.10;;;;;;;;;;4212520;28;20052;-39
2022/03/20 08:16:50;;;;;;;0.15;0.10;;;;;;;;;;4213044;28;20112;-40
2022/03/20 08:18:52;;;;;;;0.52;0.15;;;;;;;;;;4213651;28;20491;-40
2022/03/20 08:20:53;;;;;;;0.65;0.20;;;;;;;;;;4213486;28;20048;-40
2022/03/20 08:22:54;;;;;;;0.30;0.15;;;;;;;;;;4213594;28;20074;-40
2022/03/20 08:24:55;;;;;;;0.40;0.20;;;;;;;;;;4213599;28;20063;-40
2022/03/20 08:26:57;;;;;;;0.20;0.10;;;;;;;;;;4213352;28;20089;-40
2022/03/20 08:29:01;;;;;;;0.30;0.20;;;;;;;;;;4213540;28;20059;-40
2022/03/20 08:31:02;;;;;;;0.15;0.10;;;;;;;;;;4213468;28;20376;-40
2022/03/20 08:33:03;;;;;;;0.10;0.10;;;;;;;;;;4213019;28;20051;-43
2022/03/20 08:35:04;;;;;;;0.50;0.20;;;;;;;;;;4213288;28;20131;-40
2022/03/20 08:37:06;;;;;;;0.10;0.10;;;;;;;;;;4213146;28;20411;-40
2022/03/20 08:39:07;;;;;;;0.20;0.20;;;;;;;;;;4213341;28;20135;-40
2022/03/20 08:41:08;;;;;;;0.10;0.10;;;;;;;;;;4213526;28;20048;-41
2022/03/20 08:43:15;;;;;;;0.10;0.10;;;;;;;;;;4211862;28;20100;-40
2022/03/20 08:45:16;;;;;;;0.32;0.15;;;;;;;;;;4213315;28;20105;-40
2022/03/20 08:47:16;;;;;;;0.38;0.10;;;;;;;;;;4212748;28;20426;-39
2022/03/20 08:49:19;;;;;;;0.30;0.10;;;;;;;;;;4212138;28;20044;-40
2022/03/20 08:51:20;;;;;;;0.13;0.10;;;;;;;;;;4213306;28;20097;-41
2022/03/20 08:53:21;;;;;;;0.10;0.10;;;;;;;;;;4213172;28;20411;-40
2022/03/20 08:55:22;;;;;;;0.40;0.32;;;;;;;;;;4212979;28;20495;-41
2022/03/20 08:57:27;;;;;;;0.17;0.10;;;;;;;;;;4211857;28;20052;-40
2022/03/20 08:59:27;;;;;;;0.68;0.20;;;;;;;;;;4213079;28;20056;-40
2022/03/20 09:01:28;;;;;;;0.30;0.10;;;;;;;;;;4212987;28;20110;-40
2022/03/20 09:03:29;;;;;;;1.08;0.22;;;;;;;;;;4211247;28;20145;-40
2022/03/20 09:05:30;;;;;;;0.20;0.10;;;;;;;;;;4212993;28;20457;-42
2022/03/20 09:07:31;;;;;;;0.10;0.10;;;;;;;;;;4213074;28;20052;-40
2022/03/20 09:09:32;;;;;;;0.30;0.10;;;;;;;;;;4213018;28;20044;-41
2022/03/20 09:11:33;;;;;;;0.15;0.10;;;;;;;;;;4213014;28;20160;-41
2022/03/20 09:13:34;;;;;;;1.48;0.20;;;;;;;;;;4212444;28;20090;-39
2022/03/20 09:15:35;;;;;;;0.10;0.10;;;;;;;;;;4212798;28;20376;-41
2022/03/20 09:19:57;;;;;;;0.57;0.25;;;;;;;;;;4212843;28;20056;-40
2022/03/20 09:21:58;;;;;;;0.10;0.10;;;;;;;;;;4212651;28;20098;-40
2022/03/20 09:24:00;;;;;;;0.50;0.17;;;;;;;;;;4212721;28;20048;-40
2022/03/20 09:26:01;;;;;;;0.43;0.25;;;;;;;;;;4211471;28;20528;-39
2022/03/20 09:28:03;;;;;;;0.10;0.10;;;;;;;;;;4212645;28;20094;-39
2022/03/20 09:30:04;;;;;;;1.13;0.20;;;;;;;;;;4212690;28;20536;-40
2022/03/20 09:32:06;;;;;;;0.10;0.10;;;;;;;;;;4212422;28;20114;-39
2022/03/20 09:34:07;;;;;;;0.40;0.20;;;;;;;;;;4212583;28;20071;-39
2022/03/20 09:36:10;;;;;;;0.50;0.20;;;;;;;;;;4212615;28;20486;-40
2022/03/20 09:38:11;;;;;;;0.73;0.30;;;;;;;;;;4212811;28;20048;-40
2022/03/20 09:40:13;;;;;;;0.20;0.15;;;;;;;;;;4212806;28;20177;-40
2022/03/20 09:42:18;;;;;;;0.17;0.10;;;;;;;;;;4212340;28;20399;-39
2022/03/20 09:44:21;;;;;;;0.20;0.20;;;;;;;;;;4212981;28;20495;-39
2022/03/20 09:46:25;;;;;;;0.17;0.10;;;;;;;;;;4212683;28;20040;-41
2022/03/20 09:48:26;;;;;;;0.17;0.15;;;;;;;;;;4211842;28;20047;-40
2022/03/20 09:50:27;;;;;;;0.10;0.10;;;;;;;;;;4212644;28;20048;-40
2022/03/20 09:52:28;;;;;;;0.20;0.20;;;;;;;;;;4212427;28;20445;-39
2022/03/20 09:54:29;;;;;;;0.00;0.00;;;;;;;;;;4212444;28;20074;-40
2022/03/20 09:56:30;;;;;;;0.40;0.20;;;;;;;;;;4212662;28;20055;-41
2022/03/20 09:58:31;;;;;;;0.28;0.20;;;;;;;;;;4212347;28;20549;-39
2022/03/20 10:00:32;;;;;;;0.65;0.20;;;;;;;;;;4212505;28;20098;-39
2022/03/20 10:02:33;;;;;;;0.63;0.20;;;;;;;;;;4211769;28;20048;-39
2022/03/20 10:04:53;;;;;;;0.25;0.10;;;;;;;;;;4211219;28;20135;-39
2022/03/20 10:06:53;;;;;;;;;;;;;;;;;;4212891;28;20043;-40
2022/03/20 10:08:54;;;;;;;0.13;0.10;;;;;;;;;;4212384;28;19924;-39
2022/03/20 10:11:11;;;;;;;0.25;0.10;;;;;;;;;;4212223;28;20060;-40
2022/03/20 10:13:13;;;;;;;0.40;0.20;;;;;;;;;;4212297;28;20071;-40
2022/03/20 10:15:34;;;;;;;0.30;0.20;;;;;;;;;;4212396;28;20391;-39
2022/03/20 10:17:35;;;;;;;0.22;0.20;;;;;;;;;;4211770;28;20055;-41
2022/03/20 10:19:36;;;;;;;0.30;0.20;;;;;;;;;;4211029;28;20044;-41
2022/03/20 10:21:45;;;;;;;0.03;0.03;;;;;;;;;;4212654;28;20105;-40
2022/03/20 10:23:47;;;;;;;0.30;0.20;;;;;;;;;;4212250;28;20085;-40
2022/03/20 10:25:51;;;;;;;0.15;0.15;;;;;;;;;;4213360;28;20106;-40
2022/03/20 10:27:57;;;;;;;0.10;0.10;;;;;;;;;;4215536;28;20048;-39
2022/03/20 10:30:00;;;;;;;0.35;0.13;;;;;;;;;;4215662;28;20093;-40
2022/03/20 10:32:02;;;;;;;0.50;0.20;;;;;;;;;;4214889;28;20048;-40
2022/03/20 10:34:04;;;;;;;0.15;0.10;;;;;;;;;;4215198;28;20056;-44
2022/03/20 10:36:09;;;;;;;0.00;0.00;;;;;;;;;;4215226;28;20459;-40
2022/03/20 10:38:09;;;;;;;0.20;0.10;;;;;;;;;;4215018;28;20043;-40
2022/03/20 10:40:12;;;;;;;0.75;0.22;;;;;;;;;;4215340;28;20052;-41
2022/03/20 10:42:14;;;;;;;0.22;0.10;;;;;;;;;;4215010;28;20048;-41
2022/03/20 10:44:16;;;;;;;0.43;0.03;;;;;;;;;;4215123;28;20064;-40
2022/03/20 10:46:21;;;;;;;0.17;0.10;;;;;;;;;;4213967;28;20044;-40
2022/03/20 10:48:45;;;;;;;0.20;0.10;;;;;;;;;;4214578;28;20503;-40
2022/03/20 10:50:47;;;;;;;0.05;0.05;;;;;;;;;;4213524;28;20102;-41
2022/03/20 10:53:05;;;;;;;0.13;0.10;;;;;;;;;;4214719;28;20055;-41
2022/03/20 10:55:10;;;;;;;0.22;0.20;;;;;;;;;;4213656;28;20089;-40
2022/03/20 10:57:19;;;;;;;0.82;0.20;;;;;;;;;;4214908;28;20055;-43
2022/03/20 10:59:20;;;;;;;0.10;0.10;;;;;;;;;;4215005;28;20048;-39
2022/03/20 11:01:33;;;;;;;0.28;0.10;;;;;;;;;;4214833;28;20052;-41
2022/03/20 11:03:38;;;;;;;0.50;0.20;;;;;;;;;;4214171;28;20441;-41
2022/03/20 11:05:39;;;;;;;0.20;0.00;;;;;;;;;;4215007;28;20093;-39
2022/03/20 11:07:40;;;;;;;0.35;0.20;;;;;;;;;;4214600;28;20089;-39
2022/03/20 11:09:41;;;;;;;0.20;0.10;;;;;;;;;;4214557;28;20087;-41
2022/03/20 11:11:47;;;;;;;0.65;0.30;;;;;;;;;;4214629;28;20104;-41
2022/03/20 11:13:49;;;;;;;0.35;0.10;;;;;;;;;;4214773;28;20052;-40
2022/03/20 11:15:53;;;;;;;0.15;0.10;;;;;;;;;;4213252;28;20101;-39
2022/03/20 11:17:54;;;;;;;0.15;0.13;;;;;;;;;;4213940;28;20180;-40
2022/03/20 11:19:57;;;;;;;0.30;0.10;;;;;;;;;;4214817;28;20105;-41
2022/03/20 11:22:04;;;;;;;0.10;0.05;;;;;;;;;;4213188;28;20060;-40
2022/03/20 11:24:06;;;;;;;0.10;0.10;;;;;;;;;;4214645;28;20064;-42
2022/03/20 11:26:07;;;;;;;0.20;0.15;;;;;;;;;;4214607;28;20052;-39
2022/03/20 11:28:09;;;;;;;0.35;0.10;;;;;;;;;;4214443;28;20048;-39
2022/03/20 11:30:12;;;;;;;0.43;0.10;;;;;;;;;;4214261;28;20505;-42
2022/03/20 11:32:14;;;;;;;0.25;0.10;;;;;;;;;;4213826;28;20051;-40
2022/03/20 11:34:16;;;;;;;0.45;0.10;;;;;;;;;;4214268;28;20564;-39
2022/03/20 11:36:17;;;;;;;0.20;0.10;;;;;;;;;;4214152;28;20052;-40
2022/03/20 11:38:18;;;;;;;0.30;0.17;;;;;;;;;;4214714;28;20052;-40
2022/03/20 11:40:21;;;;;;;0.20;0.08;;;;;;;;;;4214011;28;20051;-40
2022/03/20 11:42:24;;;;;;;0.45;0.20;;;;;;;;;;4212710;28;20486;-40
2022/03/20 11:44:25;;;;;;;0.10;0.00;;;;;;;;;;4214072;28;20048;-39
2022/03/20 11:46:30;;;;;;;0.35;0.20;;;;;;;;;;4212852;28;20087;-39
2022/03/20 11:48:31;;;;;;;0.10;0.10;;;;;;;;;;4213714;28;20048;-39
2022/03/20 11:50:45;;;;;;;0.10;0.10;;;;;;;;;;4214113;28;20106;-39
2022/03/20 11:52:53;;;;;;;0.52;0.20;;;;;;;;;;4213815;28;20499;-42
2022/03/20 11:54:55;;;;;;;0.10;0.10;;;;;;;;;;4214028;28;20483;-42
2022/03/20 11:56:56;;;;;;;0.32;0.15;;;;;;;;;;4213908;28;20427;-40
2022/03/20 11:58:57;;;;;;;0.30;0.20;;;;;;;;;;4214150;28;20113;-40
2022/03/20 12:01:02;;;;;;;0.10;0.10;;;;;;;;;;4212950;28;20531;-41
2022/03/20 12:03:12;;;;;;;0.30;0.20;;;;;;;;;;4213268;28;20040;-42
2022/03/20 12:05:20;;;;;;;0.05;0.05;;;;;;;;;;4213813;28;20383;-43
2022/03/20 12:07:40;;;;;;;0.10;0.10;;;;;;;;;;4213732;28;20376;-40
2022/03/20 12:09:50;;;;;;;1.35;0.10;;;;;;;;;;4213811;28;20039;-41
2022/03/20 12:11:56;;;;;;;0.10;0.10;;;;;;;;;;4213625;28;20514;-41
2022/03/20 12:14:05;;;;;;;1.55;0.15;;;;;;;;;;4213551;28;20392;-46
2022/03/20 12:16:06;;;;;;;0.10;0.10;;;;;;;;;;4213683;28;20117;-41
2022/03/20 12:18:10;;;;;;;0.20;0.20;;;;;;;;;;4213264;28;20105;-40
2022/03/20 12:20:11;;;;;;;0.40;0.10;;;;;;;;;;4213789;28;20097;-40
2022/03/20 12:22:15;;;;;;;0.17;0.10;;;;;;;;;;4213714;28;20546;-41
2022/03/20 12:24:34;;;;;;;0.13;0.10;;;;;;;;;;4213496;28;20051;-40
2022/03/20 12:26:37;;;;;;;0.35;0.10;;;;;;;;;;4213605;28;20365;-42
2022/03/20 12:28:37;;;;;;;0.43;0.20;;;;;;;;;;4213492;28;20044;-41
2022/03/20 12:30:44;;;;;;;0.10;0.10;;;;;;;;;;4213604;28;20090;-41
2022/03/20 12:32:48;;;;;;;0.05;0.05;;;;;;;;;;4213004;28;20487;-41
2022/03/20 12:34:55;;;;;;;0.25;0.17;;;;;;;;;;4212094;28;20511;-39
2022/03/20 12:37:16;;;;;;;0.10;0.10;;;;;;;;;;4213169;28;20097;-41
2022/03/20 12:39:35;;;;;;;0.20;0.10;;;;;;;;;;4212070;28;20052;-41
2022/03/20 12:41:37;;;;;;;0.55;0.20;;;;;;;;;;4213532;28;20060;-42
2022/03/20 12:43:38;;;;;;;0.17;0.10;;;;;;;;;;4212915;28;20739;-42
2022/03/20 12:45:38;;;;;;;0.10;0.10;;;;;;;;;;4213461;28;20044;-42
2022/03/20 12:47:50;;;;;;;0.10;0.10;;;;;;;;;;4211574;28;20538;-44
2022/03/20 12:50:04;;;;;;;0.10;0.10;;;;;;;;;;4213126;28;20052;-43
2022/03/20 12:52:06;;;;;;;0.10;0.05;;;;;;;;;;4212981;28;20048;-41